Time,TemperatureF,DewpointF,PressureIn,WindDirection,WindDirectionDegrees,WindSpeedMPH,WindSpeedGustMPH,Humidity,HourlyPrecipIn,Conditions,Clouds,dailyrainin,SoftwareType,DateUTC
2013-02-20 00:03:00,34.8,30.2,29.66,NNW,345,4.0,4.0,83,0.00,,,0.00,Wunderground v.1.15,2013-02-20 05:03:00,
2013-02-20 00:04:00,34.8,30.0,29.66,North,360,9.0,-999.0,83,-99.99,,,0.00,weatherlink.com 1.10,2013-02-20 05:04:00,
2013-02-20 00:13:00,34.4,29.2,29.67,North,355,2.0,2.0,81,0.00,,,0.00,Wunderground v.1.15,2013-02-20 05:13:00,
2013-02-20 00:18:00,34.4,29.0,29.66,North,5,4.0,-999.0,81,-99.99,,,0.00,weatherlink.com 1.10,2013-02-20 05:18:00,
2013-02-20 00:23:00,34.1,28.9,29.67,NW,313,2.0,3.0,81,0.00,,,0.00,Wunderground v.1.15,2013-02-20 05:23:00,
2013-02-20 00:28:00,34.0,28.8,29.67,NW,311,1.0,3.0,81,0.00,,,0.00,Wunderground v.1.15,2013-02-20 05:28:00,
2013-02-20 00:33:00,33.9,29.0,29.66,NNW,329,2.0,2.0,82,0.00,,,0.00,Wunderground v.1.15,2013-02-20 05:33:00,
2013-02-20 00:43:00,33.7,28.2,29.67,West,281,3.0,3.0,80,0.00,,,0.00,Wunderground v.1.15,2013-02-20 05:43:00,
2013-02-20 00:48:00,33.5,28.0,29.67,NNW,340,3.0,3.0,80,0.00,,,0.00,Wunderground v.1.15,2013-02-20 05:48:00,
2013-02-20 00:58:00,33.3,28.1,29.67,NW,306,1.0,2.0,81,0.00,,,0.00,Wunderground v.1.15,2013-02-20 05:58:00,
2013-02-20 01:03:00,33.3,28.1,29.67,NW,316,1.0,3.0,81,0.00,,,0.00,Wunderground v.1.15,2013-02-20 06:03:00,
2013-02-20 01:13:00,32.9,27.4,29.67,North,355,2.0,3.0,80,0.00,,,0.00,Wunderground v.1.15,2013-02-20 06:13:00,
2013-02-20 01:18:00,32.8,27.6,29.66,NW,323,1.0,3.0,81,0.00,,,0.00,Wunderground v.1.15,2013-02-20 06:18:00,
2013-02-20 01:28:00,32.6,27.1,29.67,NNW,329,2.0,2.0,80,0.00,,,0.00,Wunderground v.1.15,2013-02-20 06:28:00,
2013-02-20 01:33:00,32.5,27.0,29.67,NW,321,2.0,2.0,80,0.00,,,0.00,Wunderground v.1.15,2013-02-20 06:33:00,
2013-02-20 01:38:00,32.4,27.2,29.67,West,268,1.0,2.0,81,0.00,,,0.00,Wunderground v.1.15,2013-02-20 06:38:00,
2013-02-20 01:48:00,32.3,26.5,29.67,West,279,2.0,3.0,79,0.00,,,0.00,Wunderground v.1.15,2013-02-20 06:48:00,
2013-02-20 01:53:00,32.2,26.4,29.67,WNW,292,2.0,2.0,79,0.00,,,0.00,Wunderground v.1.15,2013-02-20 06:53:00,
2013-02-20 02:03:00,32.1,26.3,29.67,WNW,291,2.0,4.0,79,0.00,,,0.00,Wunderground v.1.15,2013-02-20 07:03:00,
2013-02-20 02:13:00,32.1,25.7,29.67,North,351,3.0,3.0,77,0.00,,,0.00,Wunderground v.1.15,2013-02-20 07:13:00,
2013-02-20 02:18:00,32.0,25.0,29.67,West,280,3.0,6.0,75,0.00,,,0.00,Wunderground v.1.15,2013-02-20 07:18:00,
2013-02-20 02:28:00,31.9,25.5,29.67,West,281,2.0,6.0,77,0.00,,,0.00,Wunderground v.1.15,2013-02-20 07:28:00,
2013-02-20 02:35:00,31.8,24.0,29.68,NNW,341,0.0,-999.0,74,-99.99,,,0.00,weatherlink.com 1.10,2013-02-20 07:35:00,
2013-02-20 02:43:00,31.6,24.3,29.68,NW,313,3.0,3.0,74,0.00,,,0.00,Wunderground v.1.15,2013-02-20 07:43:00,
2013-02-20 02:48:00,31.5,24.5,29.68,WNW,299,2.0,3.0,75,0.00,,,0.00,Wunderground v.1.15,2013-02-20 07:48:00,
2013-02-20 02:58:00,31.4,24.4,29.68,NNW,327,2.0,3.0,75,0.00,,,0.00,Wunderground v.1.15,2013-02-20 07:58:00,
2013-02-20 03:06:00,31.2,23.0,29.68,West,279,0.0,-999.0,73,-99.99,,,0.00,weatherlink.com 1.10,2013-02-20 08:06:00,
2013-02-20 03:13:00,31.1,23.5,29.68,NNE,14,3.0,3.0,73,0.00,,,0.00,Wunderground v.1.15,2013-02-20 08:13:00,
2013-02-20 03:18:00,31.0,23.4,29.68,NNW,342,3.0,6.0,73,0.00,,,0.00,Wunderground v.1.15,2013-02-20 08:18:00,
2013-02-20 03:28:00,30.9,22.9,29.68,North,350,2.0,6.0,72,0.00,,,0.00,Wunderground v.1.15,2013-02-20 08:28:00,
2013-02-20 03:33:00,30.8,22.5,29.68,NW,319,3.0,3.0,71,0.00,,,0.00,Wunderground v.1.15,2013-02-20 08:33:00,
2013-02-20 03:43:00,30.6,23.0,29.68,NNW,343,2.0,2.0,73,0.00,,,0.00,Wunderground v.1.15,2013-02-20 08:43:00,
2013-02-20 03:51:00,30.4,22.0,29.68,NNE,24,0.0,-999.0,72,-99.99,,,0.00,weatherlink.com 1.10,2013-02-20 08:51:00,
2013-02-20 03:58:00,30.4,22.1,29.69,WSW,256,2.0,2.0,71,0.00,,,0.00,Wunderground v.1.15,2013-02-20 08:58:00,
2013-02-20 04:03:00,30.3,22.0,29.68,WNW,287,2.0,2.0,71,0.00,,,0.00,Wunderground v.1.15,2013-02-20 09:03:00,
2013-02-20 04:13:00,30.2,22.3,29.69,WNW,288,2.0,2.0,72,0.00,,,0.00,Wunderground v.1.15,2013-02-20 09:13:00,
2013-02-20 04:18:00,30.1,22.5,29.69,WNW,298,1.0,2.0,73,0.00,,,0.00,Wunderground v.1.15,2013-02-20 09:18:00,
2013-02-20 04:36:00,29.9,23.0,29.70,NW,315,4.0,-999.0,76,-99.99,,,0.00,weatherlink.com 1.10,2013-02-20 09:36:00,
2013-02-20 04:51:00,29.8,22.0,29.70,WNW,303,6.0,-999.0,74,-99.99,,,0.00,weatherlink.com 1.10,2013-02-20 09:51:00,
2013-02-20 05:06:00,29.6,23.0,29.71,NW,322,0.0,-999.0,75,-99.99,,,0.00,weatherlink.com 1.10,2013-02-20 10:06:00,
2013-02-20 05:21:00,29.5,23.0,29.71,North,355,0.0,-999.0,76,-99.99,,,0.00,weatherlink.com 1.10,2013-02-20 10:21:00,
2013-02-20 05:36:00,29.3,23.0,29.72,North,360,0.0,-999.0,76,-99.99,,,0.00,weatherlink.com 1.10,2013-02-20 10:36:00,
2013-02-20 05:51:00,29.4,23.0,29.73,North,350,1.0,-999.0,77,-99.99,,,0.00,weatherlink.com 1.10,2013-02-20 10:51:00,
2013-02-20 06:06:00,29.4,23.0,29.73,NW,304,2.0,-999.0,76,-99.99,,,0.00,weatherlink.com 1.10,2013-02-20 11:06:00,
2013-02-20 06:21:00,29.2,23.0,29.73,NNW,327,0.0,-999.0,77,-99.99,,,0.00,weatherlink.com 1.10,2013-02-20 11:21:00,
2013-02-20 06:36:00,29.0,23.0,29.74,NW,315,0.0,-999.0,78,-99.99,,,0.00,weatherlink.com 1.10,2013-02-20 11:36:00,
2013-02-20 06:51:00,28.8,23.0,29.75,North,5,0.0,-999.0,79,-99.99,,,0.00,weatherlink.com 1.10,2013-02-20 11:51:00,
2013-02-20 07:06:00,28.7,22.0,29.75,NW,311,4.0,-999.0,76,-99.99,,,0.00,weatherlink.com 1.10,2013-02-20 12:06:00,
2013-02-20 07:21:00,28.1,21.0,29.75,North,355,6.0,-999.0,74,-99.99,,,0.00,weatherlink.com 1.10,2013-02-20 12:21:00,
2013-02-20 07:36:00,28.1,20.0,29.76,NNW,333,0.0,-999.0,73,-99.99,,,0.00,weatherlink.com 1.10,2013-02-20 12:36:00,
2013-02-20 07:51:00,27.9,20.0,29.77,NNW,335,0.0,-999.0,73,-99.99,,,0.00,weatherlink.com 1.10,2013-02-20 12:51:00,
2013-02-20 08:07:00,27.7,20.0,29.78,NNW,344,5.0,-999.0,73,-99.99,,,0.00,weatherlink.com 1.10,2013-02-20 13:07:00,
2013-02-20 08:21:00,27.2,20.0,29.78,WNW,301,0.0,-999.0,74,-99.99,,,0.00,weatherlink.com 1.10,2013-02-20 13:21:00,
2013-02-20 08:36:00,26.8,21.0,29.78,NNW,327,3.0,-999.0,77,-99.99,,,0.00,weatherlink.com 1.10,2013-02-20 13:36:00,
2013-02-20 08:51:00,26.6,21.0,29.78,NNE,17,0.0,-999.0,79,-99.99,,,0.00,weatherlink.com 1.10,2013-02-20 13:51:00,
2013-02-20 09:06:00,25.8,21.0,29.79,NNW,345,3.0,-999.0,83,-99.99,,,0.00,weatherlink.com 1.10,2013-02-20 14:06:00,
2013-02-20 09:21:00,25.1,22.0,29.79,NNW,333,2.0,-999.0,88,-99.99,,,0.00,weatherlink.com 1.10,2013-02-20 14:21:00,
2013-02-20 09:36:00,26.5,22.0,29.78,ENE,77,0.0,-999.0,83,-99.99,,,0.00,weatherlink.com 1.10,2013-02-20 14:36:00,
2013-02-20 09:52:00,28.1,19.0,29.79,West,270,3.0,-999.0,70,-99.99,,,0.00,weatherlink.com 1.10,2013-02-20 14:52:00,
2013-02-20 10:06:00,28.0,18.0,29.79,NNW,329,3.0,-999.0,66,-99.99,,,0.00,weatherlink.com 1.10,2013-02-20 15:06:00,
2013-02-20 10:22:00,27.8,16.0,29.79,NNE,18,5.0,-999.0,62,-99.99,,,0.00,weatherlink.com 1.10,2013-02-20 15:22:00,
2013-02-20 10:37:00,28.3,17.0,29.78,WNW,296,3.0,-999.0,62,-99.99,,,0.00,weatherlink.com 1.10,2013-02-20 15:37:00,
2013-02-20 10:52:00,28.3,16.0,29.78,NNW,332,3.0,-999.0,61,-99.99,,,0.00,weatherlink.com 1.10,2013-02-20 15:52:00,
2013-02-20 11:07:00,29.0,16.0,29.78,North,360,2.0,-999.0,59,-99.99,,,0.00,weatherlink.com 1.10,2013-02-20 16:07:00,
2013-02-20 11:22:00,29.3,17.0,29.78,NNE,12,3.0,-999.0,60,-99.99,,,0.00,weatherlink.com 1.10,2013-02-20 16:22:00,
2013-02-20 11:37:00,29.6,16.0,29.78,WNW,292,5.0,-999.0,56,-99.99,,,0.00,weatherlink.com 1.10,2013-02-20 16:37:00,
2013-02-20 11:52:00,29.5,15.0,29.77,NNW,336,4.0,-999.0,56,-99.99,,,0.00,weatherlink.com 1.10,2013-02-20 16:52:00,
2013-02-20 12:07:00,28.7,15.0,29.77,North,360,2.0,-999.0,57,-99.99,,,0.00,weatherlink.com 1.10,2013-02-20 17:07:00,
2013-02-20 12:22:00,28.1,15.0,29.77,North,355,2.0,-999.0,58,-99.99,,,0.00,weatherlink.com 1.10,2013-02-20 17:22:00,
2013-02-20 12:37:00,28.5,15.0,29.77,NW,310,9.0,-999.0,57,-99.99,,,0.00,weatherlink.com 1.10,2013-02-20 17:37:00,
2013-02-20 12:53:00,28.5,15.0,29.77,NNW,341,11.0,-999.0,57,-99.99,,,0.00,weatherlink.com 1.10,2013-02-20 17:53:00,
2013-02-20 13:07:00,30.1,16.0,29.77,WNW,302,5.0,-999.0,57,-99.99,,,0.00,weatherlink.com 1.10,2013-02-20 18:07:00,
2013-02-20 13:22:00,29.6,15.0,29.77,NNW,330,3.0,-999.0,55,-99.99,,,0.00,weatherlink.com 1.10,2013-02-20 18:22:00,
2013-02-20 13:37:00,29.2,14.0,29.77,NNE,24,6.0,-999.0,54,-99.99,,,0.00,weatherlink.com 1.10,2013-02-20 18:37:00,
2013-02-20 13:52:00,29.1,15.0,29.77,NNW,340,3.0,-999.0,55,-99.99,,,0.00,weatherlink.com 1.10,2013-02-20 18:52:00,
2013-02-20 14:07:00,29.1,15.0,29.77,NW,322,3.0,-999.0,56,-99.99,,,0.00,weatherlink.com 1.10,2013-02-20 19:07:00,
2013-02-20 14:22:00,28.2,14.0,29.77,NNW,331,4.0,-999.0,56,-99.99,,,0.00,weatherlink.com 1.10,2013-02-20 19:22:00,
2013-02-20 14:37:00,27.6,14.0,29.78,NNW,346,1.0,-999.0,57,-99.99,,,0.00,weatherlink.com 1.10,2013-02-20 19:37:00,
2013-02-20 14:52:00,27.9,14.0,29.79,North,10,4.0,-999.0,55,-99.99,,,0.00,weatherlink.com 1.10,2013-02-20 19:52:00,
2013-02-20 15:22:00,27.7,15.0,29.79,WNW,297,3.0,-999.0,58,-99.99,,,0.00,weatherlink.com 1.10,2013-02-20 20:22:00,
2013-02-20 15:37:00,27.2,14.0,29.79,WNW,292,3.0,-999.0,57,-99.99,,,0.00,weatherlink.com 1.10,2013-02-20 20:37:00,
2013-02-20 15:52:00,27.8,14.0,29.80,NNW,339,9.0,-999.0,57,-99.99,,,0.00,weatherlink.com 1.10,2013-02-20 20:52:00,
2013-02-20 16:07:00,27.4,13.0,29.79,North,5,8.0,-999.0,55,-99.99,,,0.00,weatherlink.com 1.10,2013-02-20 21:07:00,
2013-02-20 16:22:00,27.4,13.0,29.80,NNW,329,9.0,-999.0,56,-99.99,,,0.00,weatherlink.com 1.10,2013-02-20 21:22:00,
2013-02-20 16:37:00,26.8,15.0,29.81,West,274,1.0,-999.0,61,-99.99,,,0.00,weatherlink.com 1.10,2013-02-20 21:37:00,
2013-02-20 16:52:00,26.1,15.0,29.82,WNW,296,3.0,-999.0,64,-99.99,,,0.00,weatherlink.com 1.10,2013-02-20 21:52:00,
2013-02-20 17:07:00,25.8,17.0,29.82,NNW,342,3.0,-999.0,68,-99.99,,,0.00,weatherlink.com 1.10,2013-02-20 22:07:00,
2013-02-20 17:22:00,25.6,16.0,29.83,NW,319,4.0,-999.0,67,-99.99,,,0.00,weatherlink.com 1.10,2013-02-20 22:22:00,
2013-02-20 17:37:00,25.7,15.0,29.83,North,351,0.0,-999.0,65,-99.99,,,0.00,weatherlink.com 1.10,2013-02-20 22:37:00,
2013-02-20 18:07:00,25.3,14.0,29.84,NNW,347,1.0,-999.0,62,-99.99,,,0.00,weatherlink.com 1.10,2013-02-20 23:07:00,
2013-02-20 18:23:00,24.9,15.0,29.85,NW,324,3.0,-999.0,65,-99.99,,,0.00,weatherlink.com 1.10,2013-02-20 23:23:00,
2013-02-20 18:37:00,24.5,15.0,29.85,NNW,335,4.0,-999.0,68,-99.99,,,0.00,weatherlink.com 1.10,2013-02-20 23:37:00,
2013-02-20 18:52:00,24.1,15.0,29.86,WNW,283,5.0,-999.0,67,-99.99,,,0.00,weatherlink.com 1.10,2013-02-20 23:52:00,
2013-02-20 19:07:00,23.9,14.0,29.87,NW,304,7.0,-999.0,66,-99.99,,,0.00,weatherlink.com 1.10,2013-02-21 00:07:00,
2013-02-20 19:13:00,24.0,14.6,29.87,NW,323,4.0,4.0,67,0.00,,,0.00,Wunderground v.1.15,2013-02-21 00:13:00,
2013-02-20 19:18:00,23.9,13.5,29.87,North,355,4.0,6.0,64,0.00,,,0.00,Wunderground v.1.15,2013-02-21 00:18:00,
2013-02-20 19:23:00,23.7,13.6,29.87,North,360,4.0,6.0,65,0.00,,,0.00,Wunderground v.1.15,2013-02-21 00:23:00,
2013-02-20 19:28:00,23.6,13.2,29.88,NNE,32,4.0,6.0,64,0.00,,,0.00,Wunderground v.1.15,2013-02-21 00:28:00,
2013-02-20 19:38:00,23.5,13.1,29.88,NNW,333,4.0,5.0,64,0.00,,,0.00,Wunderground v.1.15,2013-02-21 00:38:00,
2013-02-20 19:43:00,23.4,13.0,29.87,NNW,340,5.0,6.0,64,0.00,,,0.00,Wunderground v.1.15,2013-02-21 00:43:00,
2013-02-20 19:53:00,23.3,12.9,29.88,NNW,331,5.0,6.0,64,0.00,,,0.00,Wunderground v.1.15,2013-02-21 00:53:00,
2013-02-20 19:58:00,23.2,12.8,29.87,NW,317,4.0,6.0,64,0.00,,,0.00,Wunderground v.1.15,2013-02-21 00:58:00,
2013-02-20 20:08:00,23.1,12.7,29.88,NW,304,5.0,17.0,64,0.00,,,0.00,Wunderground v.1.15,2013-02-21 01:08:00,
2013-02-20 20:13:00,22.9,12.5,29.88,NNE,23,5.0,5.0,64,0.00,,,0.00,Wunderground v.1.15,2013-02-21 01:13:00,
2013-02-20 20:23:00,22.6,12.2,29.89,NNW,340,5.0,5.0,64,0.00,,,0.00,Wunderground v.1.15,2013-02-21 01:23:00,
2013-02-20 20:28:00,22.6,12.6,29.88,North,5,4.0,5.0,65,0.00,,,0.00,Wunderground v.1.15,2013-02-21 01:28:00,
2013-02-20 20:33:00,22.5,12.5,29.88,West,264,6.0,6.0,65,0.00,,,0.00,Wunderground v.1.15,2013-02-21 01:33:00,
2013-02-20 20:43:00,22.4,12.4,29.87,West,281,6.0,6.0,65,0.00,,,0.00,Wunderground v.1.15,2013-02-21 01:43:00,
2013-02-20 20:48:00,22.3,12.3,29.87,NNW,338,4.0,6.0,65,0.00,,,0.00,Wunderground v.1.15,2013-02-21 01:48:00,
2013-02-20 20:58:00,22.2,12.6,29.88,NW,322,4.0,4.0,66,0.00,,,0.00,Wunderground v.1.15,2013-02-21 01:58:00,
2013-02-20 21:08:00,22.0,12.4,29.87,West,263,5.0,6.0,66,0.00,,,0.00,Wunderground v.1.15,2013-02-21 02:08:00,
2013-02-20 21:13:00,21.9,12.3,29.87,WSW,244,4.0,6.0,66,0.00,,,0.00,Wunderground v.1.15,2013-02-21 02:13:00,
2013-02-20 21:23:00,21.9,12.6,29.87,NNW,329,7.0,7.0,67,0.00,,,0.00,Wunderground v.1.15,2013-02-21 02:23:00,
2013-02-20 21:28:00,21.9,12.3,29.87,NW,322,6.0,7.0,66,0.00,,,0.00,Wunderground v.1.15,2013-02-21 02:28:00,
2013-02-20 21:38:00,21.8,12.5,29.87,NNW,327,6.0,6.0,67,0.00,,,0.00,Wunderground v.1.15,2013-02-21 02:38:00,
2013-02-20 21:43:00,21.7,12.1,29.87,NW,324,5.0,5.0,66,0.00,,,0.00,Wunderground v.1.15,2013-02-21 02:43:00,
2013-02-20 21:53:00,21.7,12.1,29.87,NW,305,7.0,7.0,66,0.00,,,0.00,Wunderground v.1.15,2013-02-21 02:53:00,
2013-02-20 22:03:00,21.5,11.9,29.87,NW,318,6.0,6.0,66,0.00,,,0.00,Wunderground v.1.15,2013-02-21 03:03:00,
2013-02-20 22:08:00,21.5,11.9,29.88,NW,304,7.0,7.0,66,0.00,,,0.00,Wunderground v.1.15,2013-02-21 03:08:00,
2013-02-20 22:18:00,21.5,12.2,29.89,NNW,342,4.0,5.0,67,0.00,,,0.00,Wunderground v.1.15,2013-02-21 03:18:00,
2013-02-20 22:24:00,21.4,12.0,29.89,WNW,303,3.0,-999.0,67,-99.99,,,0.00,weatherlink.com 1.10,2013-02-21 03:24:00,
2013-02-20 22:33:00,21.3,12.0,29.90,West,271,4.0,4.0,67,0.00,,,0.00,Wunderground v.1.15,2013-02-21 03:33:00,
2013-02-20 22:39:00,21.3,12.0,29.90,WNW,303,2.0,-999.0,68,-99.99,,,0.00,weatherlink.com 1.10,2013-02-21 03:39:00,
2013-02-20 22:48:00,21.5,12.6,29.91,NW,315,3.0,4.0,68,0.00,,,0.00,Wunderground v.1.15,2013-02-21 03:48:00,
2013-02-20 22:53:00,21.4,12.8,29.91,NW,316,3.0,4.0,69,0.00,,,0.00,Wunderground v.1.15,2013-02-21 03:53:00,
2013-02-20 23:03:00,21.3,13.0,29.92,NW,318,2.0,2.0,70,0.00,,,0.00,Wunderground v.1.15,2013-02-21 04:03:00,
2013-02-20 23:09:00,21.3,13.0,29.92,NNW,330,3.0,-999.0,69,-99.99,,,0.00,weatherlink.com 1.10,2013-02-21 04:09:00,
2013-02-20 23:18:00,21.3,12.7,29.92,North,350,3.0,3.0,69,0.00,,,0.00,Wunderground v.1.15,2013-02-21 04:18:00,
2013-02-20 23:24:00,21.3,13.0,29.92,North,350,4.0,-999.0,71,-99.99,,,0.00,weatherlink.com 1.10,2013-02-21 04:24:00,
2013-02-20 23:33:00,21.3,13.0,29.92,NW,313,2.0,2.0,70,0.00,,,0.00,Wunderground v.1.15,2013-02-21 04:33:00,
2013-02-20 23:38:00,21.3,12.7,29.92,NW,313,3.0,3.0,69,0.00,,,0.00,Wunderground v.1.15,2013-02-21 04:38:00,
2013-02-20 23:43:00,21.3,13.0,29.92,NNW,346,4.0,4.0,70,0.00,,,0.00,Wunderground v.1.15,2013-02-21 04:43:00,
2013-02-20 23:53:00,21.3,13.0,29.92,North,355,3.0,3.0,70,0.00,,,0.00,Wunderground v.1.15,2013-02-21 04:53:00,